createdAt,value
2018-12-21T00:01:05.177Z,53.13
2018-12-21T00:03:31.141Z,52.57
2018-12-21T00:05:57.142Z,53.46
2018-12-21T00:08:23.139Z,52.54
2018-12-21T00:10:49.118Z,52.92
2018-12-21T00:13:15.081Z,53.44
2018-12-21T00:15:41.075Z,53.38
2018-12-21T00:18:07.045Z,52.93
2018-12-21T00:20:33.020Z,53.59
2018-12-21T00:22:59.003Z,52.86
2018-12-21T00:25:25.013Z,53.67
2018-12-21T00:27:50.956Z,52.74
2018-12-21T00:30:16.945Z,53.32
2018-12-21T00:32:43.013Z,53.17
2018-12-21T00:35:08.980Z,52.62
2018-12-21T00:37:34.929Z,52.87
2018-12-21T00:40:00.898Z,52.73
2018-12-21T00:42:26.866Z,53.61
2018-12-21T00:44:52.904Z,52.64
2018-12-21T00:47:18.891Z,52.78
2018-12-21T00:49:44.825Z,52.84
2018-12-21T00:52:10.840Z,53.09
2018-12-21T00:54:36.804Z,53.36
2018-12-21T00:57:02.781Z,52.98
2018-12-21T00:59:28.767Z,52.72
2018-12-21T01:01:54.759Z,53.38
2018-12-21T01:04:20.748Z,52.41
2018-12-21T01:06:46.703Z,53.34
2018-12-21T01:09:12.703Z,52.96
2018-12-21T01:11:38.669Z,52.96
2018-12-21T01:14:04.649Z,52.74
2018-12-21T01:16:30.628Z,53.52
2018-12-21T01:18:56.579Z,52.44
2018-12-21T01:21:22.530Z,53.37
2018-12-21T01:23:48.485Z,53.37
2018-12-21T01:26:14.523Z,52.99
2018-12-21T01:28:40.475Z,52.79
2018-12-21T01:31:06.420Z,52.79
2018-12-21T01:33:32.546Z,52.80
2018-12-21T01:35:58.598Z,52.77
2018-12-21T01:38:24.573Z,52.84
2018-12-21T01:40:50.559Z,53.09
2018-12-21T01:43:16.521Z,52.64
2018-12-21T01:45:42.495Z,53.29
2018-12-21T01:48:08.441Z,52.96
2018-12-21T01:50:34.409Z,52.62
2018-12-21T01:53:00.366Z,53.44
2018-12-21T01:55:26.343Z,52.86
2018-12-21T01:57:52.326Z,53.02
2018-12-21T02:00:18.386Z,52.72
2018-12-21T02:02:44.347Z,52.65
2018-12-21T02:05:10.344Z,52.72
2018-12-21T02:07:36.293Z,52.41
2018-12-21T02:10:02.287Z,52.68
2018-12-21T02:12:28.407Z,52.70
2018-12-21T02:14:54.386Z,52.58
2018-12-21T02:17:20.393Z,53.13
2018-12-21T02:19:46.423Z,52.12
2018-12-21T02:22:12.528Z,52.30
2018-12-21T02:24:38.621Z,52.45
2018-12-21T02:27:04.596Z,52.16
2018-12-21T02:29:30.562Z,52.68
2018-12-21T02:31:56.520Z,52.37
2018-12-21T02:34:22.481Z,52.26
2018-12-21T02:36:48.501Z,52.02
2018-12-21T02:39:14.541Z,52.41
2018-12-21T02:41:40.514Z,52.21
2018-12-21T02:44:06.470Z,51.81
2018-12-21T02:46:32.454Z,52.75
2018-12-21T02:48:58.453Z,52.83
2018-12-21T02:51:24.433Z,52.31
2018-12-21T02:53:50.570Z,52.50
2018-12-21T02:56:16.534Z,52.73
2018-12-21T02:58:42.572Z,52.95
2018-12-21T03:01:08.521Z,52.26
2018-12-21T03:03:34.495Z,52.49
2018-12-21T03:06:00.447Z,51.96
2018-12-21T03:08:26.429Z,52.32
2018-12-21T03:10:52.396Z,53.28
2018-12-21T03:13:18.433Z,52.74
2018-12-21T03:15:44.417Z,52.22
2018-12-21T03:18:10.386Z,53.44
2018-12-21T03:20:36.350Z,52.92
2018-12-21T03:23:02.392Z,53.25
2018-12-21T03:25:28.500Z,53.51
2018-12-21T03:27:54.457Z,53.17
2018-12-21T03:30:20.548Z,52.96
2018-12-21T03:32:46.491Z,52.70
2018-12-21T03:35:12.454Z,52.97
2018-12-21T03:37:38.435Z,52.88
2018-12-21T03:40:04.395Z,53.19
2018-12-21T03:42:30.461Z,52.58
2018-12-21T03:44:56.620Z,53.05
2018-12-21T03:47:22.597Z,52.65
2018-12-21T03:49:48.547Z,53.30
2018-12-21T03:52:24.001Z,52.73
2018-12-21T03:54:42.459Z,53.93
2018-12-21T03:57:08.412Z,53.31
2018-12-21T03:59:34.426Z,53.03
2018-12-21T04:02:00.392Z,52.68
2018-12-21T04:04:26.343Z,52.75
2018-12-21T04:06:52.413Z,52.86
2018-12-21T04:09:18.386Z,53.10
2018-12-21T04:11:44.342Z,52.95
2018-12-21T04:14:10.294Z,53.37
2018-12-21T04:16:36.243Z,53.22
2018-12-21T04:19:02.203Z,53.25
2018-12-21T04:21:28.150Z,53.50
2018-12-21T04:23:54.101Z,52.98
2018-12-21T04:26:20.070Z,53.83
2018-12-21T04:28:46.072Z,53.89
2018-12-21T04:31:12.020Z,53.76
2018-12-21T04:33:37.989Z,52.82
2018-12-21T04:36:04.043Z,53.60
2018-12-21T04:38:30.011Z,52.68
2018-12-21T04:40:55.953Z,52.89
2018-12-21T04:43:21.942Z,53.44
2018-12-21T04:45:47.903Z,53.05
2018-12-21T04:48:13.977Z,53.45
2018-12-21T04:50:40.025Z,53.74
2018-12-21T04:53:05.976Z,53.26
2018-12-21T04:55:31.931Z,53.23
2018-12-21T04:57:57.993Z,53.02
2018-12-21T05:00:23.952Z,53.85
2018-12-21T05:02:49.924Z,53.09
2018-12-21T05:05:15.903Z,54.07
2018-12-21T05:07:41.866Z,53.29
2018-12-21T05:10:07.821Z,52.94
2018-12-21T05:12:33.776Z,54.03
2018-12-21T05:14:59.727Z,53.05
2018-12-21T05:17:25.702Z,53.19
2018-12-21T05:19:51.657Z,52.92
2018-12-21T05:22:17.621Z,53.46
2018-12-21T05:24:43.610Z,53.86
2018-12-21T05:27:09.610Z,53.89
2018-12-21T05:29:35.554Z,53.90
2018-12-21T05:32:01.510Z,53.49
2018-12-21T05:34:27.462Z,52.99
2018-12-21T05:36:53.415Z,53.04
2018-12-21T05:39:19.358Z,52.77
2018-12-21T05:41:45.309Z,53.37
2018-12-21T05:44:11.296Z,53.40
2018-12-21T05:46:37.220Z,54.19
2018-12-21T05:49:03.192Z,53.82
2018-12-21T05:51:29.144Z,54.02
2018-12-21T05:53:55.109Z,53.66
2018-12-21T05:56:21.061Z,53.64
2018-12-21T05:58:47.051Z,53.39
2018-12-21T06:01:13.078Z,53.58
2018-12-21T06:03:39.056Z,53.46
2018-12-21T06:06:05.021Z,53.28
2018-12-21T06:08:30.994Z,53.61
2018-12-21T06:10:56.939Z,53.31
2018-12-21T06:13:22.906Z,53.61
2018-12-21T06:15:48.880Z,53.64
2018-12-21T06:18:14.919Z,53.59
2018-12-21T06:20:40.863Z,53.31
2018-12-21T06:23:09.546Z,53.43
2018-12-21T06:25:34.917Z,54.08
2018-12-21T06:28:00.871Z,54.14
2018-12-21T06:30:26.826Z,53.83
2018-12-21T06:32:52.833Z,53.32
2018-12-21T06:35:18.842Z,53.82
2018-12-21T06:37:44.830Z,53.54
2018-12-21T06:40:10.777Z,53.91
2018-12-21T06:42:36.838Z,53.69
2018-12-21T06:45:02.807Z,53.48
2018-12-21T06:47:28.835Z,54.13
2018-12-21T06:49:54.813Z,53.83
2018-12-21T06:52:20.868Z,53.89
2018-12-21T06:54:46.838Z,53.55
2018-12-21T06:57:12.816Z,53.17
2018-12-21T06:59:38.773Z,54.28
2018-12-21T07:02:04.772Z,53.44
2018-12-21T07:04:30.804Z,53.45
2018-12-21T07:06:56.762Z,53.82
2018-12-21T07:09:22.715Z,53.88
2018-12-21T07:11:48.792Z,53.04
2018-12-21T07:14:14.755Z,53.66
2018-12-21T07:16:40.825Z,53.32
2018-12-21T07:19:06.977Z,53.36
2018-12-21T07:21:32.962Z,54.24
2018-12-21T07:23:58.914Z,53.37
2018-12-21T07:26:24.953Z,53.17
2018-12-21T07:28:50.937Z,53.95
2018-12-21T07:31:16.889Z,53.85
2018-12-21T07:33:42.857Z,53.34
2018-12-21T07:36:08.946Z,53.30
2018-12-21T07:38:35.097Z,53.26
2018-12-21T07:41:01.057Z,53.40
2018-12-21T07:43:27.025Z,53.10
2018-12-21T07:45:53.029Z,53.08
2018-12-21T07:48:18.969Z,53.76
2018-12-21T07:50:44.937Z,53.55
2018-12-21T07:53:10.962Z,54.26
2018-12-21T07:55:37.018Z,53.34
2018-12-21T07:58:03.077Z,53.94
2018-12-21T08:00:29.042Z,53.98
2018-12-21T08:02:55.164Z,53.77
2018-12-21T08:05:21.113Z,54.10
2018-12-21T08:07:47.089Z,53.99
2018-12-21T08:10:13.070Z,54.04
2018-12-21T08:12:39.018Z,54.24
2018-12-21T08:15:05.025Z,53.65
2018-12-21T08:17:30.970Z,53.92
2018-12-21T08:19:56.936Z,54.22
2018-12-21T08:22:22.909Z,53.98
2018-12-21T08:24:48.857Z,54.02
2018-12-21T08:27:14.823Z,53.77
2018-12-21T08:29:40.790Z,53.62
2018-12-21T08:32:06.781Z,54.39
2018-12-21T08:34:32.724Z,54.06
2018-12-21T08:36:58.691Z,53.61
2018-12-21T08:39:24.645Z,54.29
2018-12-21T08:41:50.625Z,54.38
2018-12-21T08:44:16.581Z,54.07
2018-12-21T08:46:42.540Z,54.09
2018-12-21T08:49:08.502Z,54.75
2018-12-21T08:51:34.449Z,53.66
2018-12-21T08:54:00.460Z,54.53
2018-12-21T08:56:26.439Z,54.53
2018-12-21T08:58:52.495Z,54.29
2018-12-21T09:01:18.447Z,54.67
2018-12-21T09:03:44.494Z,54.29
2018-12-21T09:06:18.264Z,54.50
2018-12-21T09:08:38.396Z,54.25
2018-12-21T09:11:04.367Z,54.17
2018-12-21T09:13:30.350Z,54.34
2018-12-21T09:15:56.307Z,53.97
2018-12-21T09:18:22.261Z,53.77
2018-12-21T09:20:48.330Z,53.54
2018-12-21T09:23:14.358Z,53.93
2018-12-21T09:25:40.325Z,54.31
2018-12-21T09:28:06.375Z,54.32
2018-12-21T09:30:32.327Z,53.61
2018-12-21T09:32:58.286Z,53.86
2018-12-21T09:35:24.511Z,54.24
2018-12-21T09:37:50.569Z,54.10
2018-12-21T09:40:16.561Z,54.55
2018-12-21T09:42:42.585Z,54.58
2018-12-21T09:45:08.622Z,54.42
2018-12-21T09:47:34.663Z,54.62
2018-12-21T09:50:00.700Z,54.07
2018-12-21T09:52:26.701Z,54.38
2018-12-21T09:54:52.660Z,54.32
2018-12-21T09:57:18.629Z,54.34
2018-12-21T09:59:44.621Z,53.88
2018-12-21T10:02:10.676Z,54.43
2018-12-21T10:04:36.747Z,54.57
2018-12-21T10:07:02.740Z,54.44
2018-12-21T10:09:28.721Z,53.82
2018-12-21T10:11:54.731Z,54.48
2018-12-21T10:14:20.719Z,54.65
2018-12-21T10:16:46.702Z,54.89
2018-12-21T10:19:12.690Z,54.20
2018-12-21T10:21:38.662Z,54.03
2018-12-21T10:24:04.617Z,55.00
2018-12-21T10:26:30.614Z,54.64
2018-12-21T10:28:56.595Z,54.37
2018-12-21T10:31:22.899Z,54.61
2018-12-21T10:33:49.000Z,53.99
2018-12-21T10:36:15.185Z,54.58
2018-12-21T10:38:41.125Z,54.78
2018-12-21T10:41:07.103Z,54.57
2018-12-21T10:43:33.057Z,54.85
2018-12-21T10:45:59.056Z,54.46
2018-12-21T10:48:25.032Z,54.47
2018-12-21T10:50:51.003Z,53.86
2018-12-21T10:53:17.028Z,54.17
2018-12-21T10:55:43.053Z,54.66
2018-12-21T10:58:09.073Z,54.04
2018-12-21T11:00:35.227Z,53.91
2018-12-21T11:03:01.194Z,54.45
2018-12-21T11:05:27.141Z,54.46
2018-12-21T11:07:53.123Z,53.57
2018-12-21T11:10:19.133Z,53.35
2018-12-21T11:12:45.170Z,53.58
2018-12-21T11:15:11.178Z,53.87
2018-12-21T11:17:37.213Z,53.31
2018-12-21T11:20:03.238Z,54.08
2018-12-21T11:22:29.205Z,53.23
2018-12-21T11:24:55.161Z,54.25
2018-12-21T11:27:21.233Z,54.36
2018-12-21T11:29:47.175Z,54.02
2018-12-21T11:32:13.193Z,54.46
2018-12-21T11:34:39.162Z,53.66
2018-12-21T11:37:05.220Z,53.45
2018-12-21T11:39:31.165Z,54.23
2018-12-21T11:41:57.313Z,53.63
2018-12-21T11:44:23.378Z,54.26
2018-12-21T11:46:49.340Z,53.72
2018-12-21T11:49:15.330Z,54.66
2018-12-21T11:51:41.310Z,54.33
2018-12-21T11:54:07.290Z,54.00
2018-12-21T11:56:33.281Z,53.68
2018-12-21T11:58:59.459Z,53.79
2018-12-21T12:01:25.411Z,54.27
2018-12-21T12:03:51.370Z,54.27
2018-12-21T12:06:17.363Z,54.11
2018-12-21T12:08:43.679Z,54.67
2018-12-21T12:11:09.617Z,54.42
2018-12-21T12:13:35.585Z,54.07
2018-12-21T12:16:01.559Z,53.57
2018-12-21T12:18:27.527Z,53.68
2018-12-21T12:20:53.526Z,53.61
2018-12-21T12:23:19.499Z,53.30
2018-12-21T12:25:46.457Z,54.02
2018-12-21T12:28:12.476Z,53.80
2018-12-21T12:30:38.421Z,53.24
2018-12-21T12:33:04.396Z,53.07
2018-12-21T12:35:30.354Z,54.12
2018-12-21T12:37:56.340Z,53.26
2018-12-21T12:40:22.282Z,54.43
2018-12-21T12:42:48.243Z,53.48
2018-12-21T12:45:14.256Z,54.07
2018-12-21T12:47:40.286Z,53.67
2018-12-21T12:50:06.315Z,53.71
2018-12-21T12:52:32.352Z,54.27
2018-12-21T12:55:03.020Z,53.49
2018-12-21T12:57:26.346Z,54.36
2018-12-21T12:59:52.393Z,54.39
2018-12-21T13:02:18.445Z,53.81
2018-12-21T13:04:44.434Z,54.48
2018-12-21T13:07:10.397Z,53.90
2018-12-21T13:09:36.375Z,53.64
2018-12-21T13:12:02.361Z,53.75
2018-12-21T13:14:28.346Z,54.46
2018-12-21T13:16:54.328Z,53.55
2018-12-21T13:19:20.314Z,53.65
2018-12-21T13:21:46.277Z,54.45
2018-12-21T13:24:12.264Z,54.35
2018-12-21T13:26:38.284Z,54.34
2018-12-21T13:29:04.529Z,54.25
2018-12-21T13:31:30.558Z,54.26
2018-12-21T13:33:56.592Z,54.53
2018-12-21T13:36:22.556Z,54.01
2018-12-21T13:38:48.530Z,54.25
2018-12-21T13:41:14.489Z,54.52
2018-12-21T13:43:40.444Z,54.55
2018-12-21T13:46:06.382Z,53.93
2018-12-21T13:48:32.354Z,54.34
2018-12-21T13:50:58.322Z,53.86
2018-12-21T13:53:24.277Z,53.64
2018-12-21T13:55:50.246Z,54.69
2018-12-21T13:58:16.284Z,53.72
2018-12-21T14:00:42.230Z,54.47
2018-12-21T14:03:08.225Z,54.15
2018-12-21T14:05:34.201Z,54.55
2018-12-21T14:08:00.241Z,54.94
2018-12-21T14:10:26.938Z,54.83
2018-12-21T14:12:52.889Z,54.69
2018-12-21T14:15:18.858Z,54.35
2018-12-21T14:17:44.838Z,54.21
2018-12-21T14:20:10.818Z,54.10
2018-12-21T14:22:36.782Z,53.84
2018-12-21T14:25:02.742Z,54.95
2018-12-21T14:27:28.818Z,54.81
2018-12-21T14:29:54.838Z,54.36
2018-12-21T14:32:20.805Z,54.65
2018-12-21T14:34:46.789Z,54.01
2018-12-21T14:37:12.828Z,54.01
2018-12-21T14:39:38.820Z,54.11
2018-12-21T14:42:04.792Z,54.78
2018-12-21T14:44:30.758Z,54.46
2018-12-21T14:46:56.736Z,54.54
2018-12-21T14:49:22.712Z,54.18
2018-12-21T14:51:48.798Z,53.86
2018-12-21T14:54:14.843Z,54.45
2018-12-21T14:56:40.786Z,54.66
2018-12-21T14:59:06.787Z,53.72
2018-12-21T15:01:32.792Z,54.07
2018-12-21T15:03:58.841Z,53.89
2018-12-21T15:06:24.818Z,54.20
2018-12-21T15:08:50.773Z,54.08
2018-12-21T15:11:16.724Z,53.80
2018-12-21T15:13:42.673Z,53.97
2018-12-21T15:16:08.802Z,53.77
2018-12-21T15:18:34.780Z,53.64
2018-12-21T15:21:00.754Z,54.14
2018-12-21T15:23:26.713Z,53.42
2018-12-21T15:25:52.698Z,54.00
2018-12-21T15:28:18.659Z,53.58
2018-12-21T15:30:44.620Z,54.35
2018-12-21T15:33:10.670Z,54.12
2018-12-21T15:35:36.816Z,54.03
2018-12-21T15:38:02.799Z,54.35
2018-12-21T15:40:28.782Z,54.22
2018-12-21T15:42:54.732Z,54.13
2018-12-21T15:45:20.688Z,54.23
2018-12-21T15:47:46.656Z,54.35
2018-12-21T15:50:12.610Z,54.02
2018-12-21T15:52:38.581Z,54.33
2018-12-21T15:55:04.550Z,53.85
2018-12-21T15:57:30.497Z,53.40
2018-12-21T15:59:56.467Z,53.68
2018-12-21T16:02:22.414Z,53.83
2018-12-21T16:04:48.358Z,54.11
2018-12-21T16:07:14.328Z,53.69
2018-12-21T16:09:40.274Z,53.79
2018-12-21T16:12:06.335Z,54.19
2018-12-21T16:14:34.621Z,54.52
2018-12-21T16:17:00.298Z,54.28
2018-12-21T16:19:26.275Z,53.43
2018-12-21T16:21:52.244Z,53.75
2018-12-21T16:24:18.211Z,53.73
2018-12-21T16:26:44.181Z,54.14
2018-12-21T16:29:10.134Z,54.26
2018-12-21T16:31:36.129Z,53.67
2018-12-21T16:34:02.137Z,53.88
2018-12-21T16:36:28.098Z,54.18
2018-12-21T16:38:54.085Z,53.60
2018-12-21T16:41:20.059Z,53.86
2018-12-21T16:43:46.122Z,53.48
2018-12-21T16:46:12.181Z,54.12
2018-12-21T16:48:38.174Z,53.67
2018-12-21T16:51:04.194Z,53.28
2018-12-21T16:53:30.142Z,53.25
2018-12-21T16:55:56.095Z,53.29
2018-12-21T16:58:22.077Z,53.93
2018-12-21T17:00:48.049Z,54.02
2018-12-21T17:03:15.738Z,53.30
2018-12-21T17:05:41.975Z,54.41
2018-12-21T17:08:07.946Z,53.65
2018-12-21T17:10:34.001Z,53.62
2018-12-21T17:12:59.965Z,53.94
2018-12-21T17:15:25.957Z,54.40
2018-12-21T17:17:51.940Z,54.35
2018-12-21T17:20:17.982Z,53.54
2018-12-21T17:22:43.936Z,54.52
2018-12-21T17:25:09.888Z,53.81
2018-12-21T17:27:35.951Z,53.74
2018-12-21T17:30:01.935Z,53.77
2018-12-21T17:32:28.622Z,53.90
2018-12-21T17:34:55.883Z,53.56
2018-12-21T17:37:22.152Z,53.43
2018-12-21T17:39:48.106Z,53.49
2018-12-21T17:42:14.085Z,53.44
2018-12-21T17:44:40.043Z,54.15
2018-12-21T17:47:06.023Z,53.55
2018-12-21T17:49:31.978Z,53.68
2018-12-21T17:52:01.535Z,53.43
2018-12-21T17:54:26.017Z,53.46
2018-12-21T17:56:51.967Z,54.17
2018-12-21T17:59:18.174Z,53.94
2018-12-21T18:01:44.109Z,53.75
2018-12-21T18:04:10.063Z,54.31
2018-12-21T18:06:36.005Z,53.62
2018-12-21T18:09:02.002Z,53.24
2018-12-21T18:11:27.961Z,53.43
2018-12-21T18:13:53.933Z,54.28
2018-12-21T18:16:20.864Z,53.21
2018-12-21T18:18:46.986Z,53.43
2018-12-21T18:21:12.973Z,54.13
2018-12-21T18:23:38.939Z,53.80
2018-12-21T18:26:04.925Z,53.33
2018-12-21T18:28:31.121Z,53.11
2018-12-21T18:30:57.144Z,54.23
2018-12-21T18:33:23.118Z,54.09
2018-12-21T18:35:49.078Z,53.49
2018-12-21T18:38:15.035Z,54.00
2018-12-21T18:40:40.996Z,54.12
2018-12-21T18:43:06.946Z,53.46
2018-12-21T18:45:32.897Z,53.66
2018-12-21T18:47:59.061Z,53.30
2018-12-21T18:50:25.019Z,53.77
2018-12-21T18:52:50.986Z,53.84
2018-12-21T18:55:17.466Z,53.47
2018-12-21T18:57:43.628Z,53.96
2018-12-21T19:00:09.627Z,53.13
2018-12-21T19:02:35.600Z,52.20
2018-12-21T19:05:01.610Z,52.40
2018-12-21T19:07:27.564Z,53.03
2018-12-21T19:09:53.567Z,53.31
2018-12-21T19:12:19.589Z,53.77
2018-12-21T19:14:45.584Z,53.29
2018-12-21T19:17:11.668Z,53.00
2018-12-21T19:19:37.816Z,53.35
2018-12-21T19:22:03.788Z,53.54
2018-12-21T19:24:29.737Z,53.76
2018-12-21T19:26:56.088Z,53.88
2018-12-21T19:29:22.164Z,53.16
2018-12-21T19:31:48.107Z,53.18
2018-12-21T19:34:14.097Z,52.74
2018-12-21T19:36:40.165Z,52.70
2018-12-21T19:39:06.154Z,53.26
2018-12-21T19:41:32.113Z,52.96
2018-12-21T19:43:58.141Z,52.91
2018-12-21T19:46:24.128Z,52.69
2018-12-21T19:48:50.135Z,52.99
2018-12-21T19:51:16.090Z,53.05
2018-12-21T19:53:42.060Z,52.95
2018-12-21T19:56:08.136Z,54.02
2018-12-21T19:58:34.198Z,53.77
2018-12-21T20:01:00.337Z,53.46
2018-12-21T20:03:26.375Z,53.08
2018-12-21T20:05:52.349Z,52.87
2018-12-21T20:08:18.327Z,53.68
2018-12-21T20:10:44.377Z,53.11
2018-12-21T20:13:10.577Z,52.78
2018-12-21T20:15:36.530Z,52.70
2018-12-21T20:18:02.505Z,53.66
2018-12-21T20:20:28.571Z,52.94
2018-12-21T20:22:54.632Z,53.27
2018-12-21T20:25:20.586Z,52.74
2018-12-21T20:27:46.553Z,52.66
2018-12-21T20:30:12.510Z,53.55
2018-12-21T20:32:38.479Z,53.66
2018-12-21T20:35:04.530Z,52.94
2018-12-21T20:37:30.505Z,53.42
2018-12-21T20:39:56.557Z,52.61
2018-12-21T20:42:22.508Z,53.36
2018-12-21T20:44:48.496Z,53.05
2018-12-21T20:47:14.458Z,53.52
2018-12-21T20:49:40.421Z,52.82
2018-12-21T20:52:06.407Z,53.27
2018-12-21T20:54:32.372Z,53.38
2018-12-21T20:56:58.336Z,52.83
2018-12-21T20:59:24.306Z,52.98
2018-12-21T21:01:50.279Z,53.39
2018-12-21T21:04:16.282Z,53.30
2018-12-21T21:06:42.267Z,53.65
2018-12-21T21:09:08.219Z,52.92
2018-12-21T21:11:34.270Z,52.84
2018-12-21T21:14:00.338Z,53.83
2018-12-21T21:16:26.418Z,52.91
2018-12-21T21:18:52.389Z,53.78
2018-12-21T21:21:18.366Z,53.00
2018-12-21T21:23:44.434Z,53.63
2018-12-21T21:26:10.434Z,52.86
2018-12-21T21:28:36.376Z,52.67
2018-12-21T21:31:02.365Z,53.42
2018-12-21T21:33:28.334Z,53.36
2018-12-21T21:35:54.312Z,53.09
2018-12-21T21:38:21.002Z,53.80
2018-12-21T21:40:46.980Z,52.94
2018-12-21T21:43:12.983Z,53.58
2018-12-21T21:45:38.987Z,53.55
2018-12-21T21:48:05.006Z,53.02
2018-12-21T21:50:30.951Z,52.85
2018-12-21T21:52:56.959Z,52.83
2018-12-21T21:55:24.272Z,52.95
2018-12-21T21:57:50.429Z,53.26
2018-12-21T22:00:16.512Z,53.87
2018-12-21T22:02:42.571Z,52.78
2018-12-21T22:05:08.745Z,53.68
2018-12-21T22:07:34.833Z,53.37
2018-12-21T22:10:00.876Z,52.83
2018-12-21T22:12:26.832Z,54.49
2018-12-21T22:14:52.805Z,53.91
2018-12-21T22:17:18.786Z,53.00
2018-12-21T22:19:44.739Z,53.09
2018-12-21T22:22:10.730Z,53.27
2018-12-21T22:24:36.677Z,53.68
2018-12-21T22:27:02.711Z,52.83
2018-12-21T22:29:28.728Z,53.65
2018-12-21T22:31:54.680Z,53.20
2018-12-21T22:34:20.643Z,53.24
2018-12-21T22:36:46.600Z,53.34
2018-12-21T22:39:12.561Z,53.90
2018-12-21T22:41:38.515Z,53.75
2018-12-21T22:44:04.519Z,53.18
2018-12-21T22:46:30.532Z,53.48
2018-12-21T22:48:56.479Z,53.12
2018-12-21T22:51:22.429Z,53.64
2018-12-21T22:53:48.395Z,54.30
2018-12-21T22:56:14.406Z,53.12
2018-12-21T22:58:40.475Z,53.20
2018-12-21T23:01:06.443Z,54.17
2018-12-21T23:03:32.411Z,54.52
2018-12-21T23:05:58.402Z,53.06
2018-12-21T23:08:24.356Z,53.31
2018-12-21T23:10:50.330Z,53.82
2018-12-21T23:13:16.313Z,53.24
2018-12-21T23:15:42.310Z,53.62
2018-12-21T23:18:08.263Z,53.73
2018-12-21T23:20:34.226Z,53.11
2018-12-21T23:23:00.262Z,53.54
2018-12-21T23:25:26.217Z,53.13
2018-12-21T23:27:52.182Z,53.28
2018-12-21T23:30:18.220Z,53.92
2018-12-21T23:32:44.192Z,53.35
2018-12-21T23:35:10.149Z,53.55
2018-12-21T23:37:36.115Z,54.13
2018-12-21T23:40:02.193Z,53.30
2018-12-21T23:42:28.155Z,53.60
2018-12-21T23:44:54.178Z,53.21
2018-12-21T23:47:20.435Z,53.22
2018-12-21T23:49:46.393Z,53.66
2018-12-21T23:52:12.361Z,53.62
2018-12-21T23:54:38.330Z,53.22
2018-12-21T23:57:04.298Z,52.96
2018-12-21T23:59:30.366Z,53.79
